Time;durP1;ratioP1;P1;durP2;ratioP2;P2;SDS_P1;SDS_P2;PMS_P1;PMS_P2;Temp;Humidity;BMP_temperature;BMP_pressure;BME280_temperature;BME280_humidity;BME280_pressure;Samples;Min_cycle;Max_cycle;Signal;HPM_P1;HPM_P2
2021/06/06 01:06:52;;;;;;;47.70;33.70;;;15.30;99.90;;;;;;4916320;29;20168;-87
2021/06/06 01:41:36;;;;;;;51.70;35.67;;;15.40;99.90;;;;;;4878367;29;20789;-86
2021/06/06 02:22:00;;;;;;;37.38;29.98;;;15.40;99.90;;;;;;4973606;28;20048;-86
2021/06/06 03:50:39;;;;;;;34.30;30.60;;;15.10;99.90;;;;;;5039712;28;20076;-86
2021/06/06 06:43:22;;;;;;;25.92;19.00;;;15.20;99.90;;;;;;5028864;28;20044;-87
2021/06/06 06:46:44;;;;;;;24.08;18.65;;;15.20;99.90;;;;;;5025928;28;20045;-85
2021/06/06 06:50:38;;;;;;;26.83;19.38;;;15.20;99.90;;;;;;5006322;28;20122;-86
2021/06/06 07:05:08;;;;;;;28.38;19.92;;;15.20;99.90;;;;;;4986293;28;20240;-86
2021/06/06 07:07:37;;;;;;;27.55;18.98;;;15.30;99.90;;;;;;4965547;28;20445;-87
2021/06/06 07:10:09;;;;;;;27.85;18.58;;;15.70;99.90;;;;;;4989542;28;20501;-86
2021/06/06 07:12:35;;;;;;;27.63;18.25;;;15.50;99.90;;;;;;4986152;28;20038;-85
2021/06/06 07:15:01;;;;;;;22.40;15.88;;;15.50;99.90;;;;;;4966672;28;20053;-86
2021/06/06 07:17:27;;;;;;;28.55;17.15;;;15.50;99.90;;;;;;4999178;28;20099;-86
2021/06/06 07:19:53;;;;;;;24.65;15.25;;;15.60;99.90;;;;;;5023596;28;20085;-84
2021/06/06 07:22:19;;;;;;;20.17;14.25;;;15.50;99.90;;;;;;5028863;28;20041;-85
2021/06/06 07:24:46;;;;;;;23.63;14.52;;;15.50;99.90;;;;;;5011019;28;21725;-84
2021/06/06 07:27:13;;;;;;;25.75;15.27;;;15.80;99.90;;;;;;5030849;28;20688;-85
2021/06/06 07:29:39;;;;;;;19.67;13.20;;;15.40;99.90;;;;;;5011304;28;20052;-87
2021/06/06 07:32:06;;;;;;;20.15;12.63;;;15.40;99.90;;;;;;5025668;28;20121;-85
2021/06/06 07:34:32;;;;;;;19.95;13.07;;;15.40;99.90;;;;;;5031866;28;20049;-86
2021/06/06 07:37:49;;;;;;;16.08;11.65;;;15.40;99.90;;;;;;5014171;28;20030;-85
2021/06/06 07:45:12;;;;;;;18.20;13.02;;;15.60;99.90;;;;;;4904935;29;20094;-85
2021/06/06 07:47:42;;;;;;;15.10;11.52;;;15.60;99.90;;;;;;4895176;29;20056;-84
2021/06/06 07:50:14;;;;;;;15.02;11.27;;;15.60;99.90;;;;;;4924496;29;20058;-84
2021/06/06 07:52:40;;;;;;;15.73;11.40;;;15.60;99.90;;;;;;4996913;28;20058;-85
2021/06/06 07:55:11;;;;;;;15.40;12.43;;;15.60;99.90;;;;;;5028905;28;20092;-85
2021/06/06 07:57:40;;;;;;;20.40;13.77;;;15.50;99.90;;;;;;5027289;28;20065;-85
2021/06/06 08:00:10;;;;;;;16.90;12.43;;;15.60;99.90;;;;;;5008789;28;20834;-86
2021/06/06 08:02:35;;;;;;;16.30;12.77;;;15.60;99.90;;;;;;5018465;28;20029;-86
2021/06/06 08:05:01;;;;;;;16.38;13.60;;;15.80;99.90;;;;;;5026754;28;20052;-83
2021/06/06 08:07:32;;;;;;;18.67;13.98;;;15.70;99.90;;;;;;5030093;28;20499;-85
2021/06/06 08:09:58;;;;;;;21.05;15.75;;;15.70;99.90;;;;;;5029128;28;20045;-85
2021/06/06 08:12:26;;;;;;;21.38;16.13;;;15.90;99.90;;;;;;5029070;28;20922;-86
2021/06/06 08:14:53;;;;;;;21.20;15.68;;;15.70;99.90;;;;;;5028221;28;20119;-86
2021/06/06 08:17:20;;;;;;;26.60;17.50;;;15.90;99.90;;;;;;5012254;28;20454;-85
2021/06/06 08:19:45;;;;;;;26.40;16.40;;;15.70;99.90;;;;;;5029604;28;20045;-85
2021/06/06 08:22:12;;;;;;;22.42;16.80;;;15.80;99.90;;;;;;5032472;28;20156;-85
2021/06/06 08:24:38;;;;;;;25.50;16.90;;;15.80;99.90;;;;;;5028756;28;20041;-86
2021/06/06 08:27:05;;;;;;;23.27;16.60;;;15.80;99.90;;;;;;5008289;28;20064;-84
2021/06/06 08:29:31;;;;;;;20.58;15.57;;;15.80;99.90;;;;;;5025082;28;20515;-85
2021/06/06 08:31:59;;;;;;;20.25;17.23;;;16.00;99.90;;;;;;5021554;28;20035;-84
2021/06/06 08:34:25;;;;;;;20.50;16.40;;;15.80;99.90;;;;;;5021056;28;20037;-85
2021/06/06 08:36:51;;;;;;;17.27;15.00;;;15.90;99.90;;;;;;5020613;28;20045;-83
2021/06/06 08:39:23;;;;;;;19.85;14.57;;;16.00;99.90;;;;;;5024922;28;20044;-84
2021/06/06 08:42:05;;;;;;;19.17;15.20;;;16.00;99.90;;;;;;5022628;28;20045;-84
2021/06/06 08:44:42;;;;;;;19.25;14.80;;;16.00;99.90;;;;;;5008644;28;20080;-83
2021/06/06 08:47:21;;;;;;;16.55;14.23;;;16.00;99.90;;;;;;5024550;28;20037;-84
2021/06/06 08:49:52;;;;;;;18.00;15.65;;;16.20;99.90;;;;;;5022677;28;20152;-84
2021/06/06 08:52:37;;;;;;;17.65;14.23;;;16.20;99.90;;;;;;5025119;28;20485;-83
2021/06/06 08:55:04;;;;;;;22.67;14.95;;;16.30;99.90;;;;;;5021848;28;20045;-85
2021/06/06 08:57:50;;;;;;;22.02;15.57;;;16.30;99.90;;;;;;5024193;28;20048;-85
2021/06/06 09:00:25;;;;;;;;;;;16.40;99.90;;;;;;5020403;28;20041;-86
2021/06/06 09:03:10;;;;;;;23.75;17.33;;;16.40;99.90;;;;;;5036954;28;20730;-85
2021/06/06 09:05:40;;;;;;;23.20;17.00;;;16.40;99.90;;;;;;5019774;28;20042;-83
2021/06/06 09:08:13;;;;;;;22.88;17.83;;;16.50;99.90;;;;;;5004124;28;20312;-83
2021/06/06 09:10:43;;;;;;;23.20;18.75;;;16.80;99.90;;;;;;5022815;28;20056;-84
2021/06/06 09:13:11;;;;;;;22.05;17.90;;;16.80;99.90;;;;;;5019057;28;20072;-86
2021/06/06 09:15:37;;;;;;;27.33;19.73;;;16.50;99.90;;;;;;5022950;28;20033;-86
2021/06/06 09:18:29;;;;;;;23.50;18.65;;;16.60;99.90;;;;;;5027548;28;20038;-85
2021/06/06 09:21:08;;;;;;;26.67;19.63;;;16.50;99.90;;;;;;5025886;28;20121;-85
2021/06/06 09:23:34;;;;;;;113.95;43.47;;;16.50;99.90;;;;;;5028680;28;20052;-84
2021/06/06 09:26:09;;;;;;;39.25;23.38;;;16.50;99.90;;;;;;5012828;28;20039;-84
2021/06/06 09:28:37;;;;;;;;;;;16.50;99.90;;;;;;5029927;28;20065;-84
2021/06/06 09:31:08;;;;;;;27.75;20.95;;;16.50;99.90;;;;;;5032140;28;19920;-84
2021/06/06 09:33:52;;;;;;;166.32;60.90;;;16.40;99.90;;;;;;5026234;28;20491;-84
2021/06/06 09:36:35;;;;;;;38.05;22.65;;;16.70;99.90;;;;;;5023030;28;20052;-83
2021/06/06 09:39:01;;;;;;;30.85;22.33;;;16.50;99.90;;;;;;5027233;28;20688;-83
2021/06/06 09:41:33;;;;;;;31.08;22.88;;;16.70;99.90;;;;;;5025253;28;20140;-83
2021/06/06 09:44:17;;;;;;;38.40;26.58;;;16.60;99.90;;;;;;5043980;28;20050;-84
2021/06/06 09:46:46;;;;;;;77.55;45.83;;;16.60;99.90;;;;;;5030222;28;20037;-84
2021/06/06 09:49:15;;;;;;;33.20;25.13;;;16.60;99.90;;;;;;5031674;28;20080;-83
2021/06/06 09:51:41;;;;;;;32.53;22.80;;;16.60;99.90;;;;;;4991510;28;20111;-84
2021/06/06 09:54:12;;;;;;;37.97;26.42;;;16.70;99.90;;;;;;5018436;28;20587;-83
2021/06/06 09:56:38;;;;;;;43.97;29.02;;;16.70;99.90;;;;;;5023111;28;20037;-82
2021/06/06 09:59:23;;;;;;;32.85;24.58;;;16.70;99.90;;;;;;5029543;28;20040;-83
2021/06/06 10:01:51;;;;;;;34.03;24.45;;;16.70;99.90;;;;;;5043987;28;20488;-84
2021/06/06 10:05:08;;;;;;;33.95;23.98;;;16.70;99.90;;;;;;5014219;28;20488;-83
2021/06/06 10:07:40;;;;;;;36.22;23.92;;;16.80;99.90;;;;;;5037513;28;20033;-82
2021/06/06 10:10:22;;;;;;;38.45;25.02;;;16.70;99.90;;;;;;5029453;28;20072;-83
2021/06/06 10:12:49;;;;;;;31.65;22.08;;;16.70;99.90;;;;;;5012834;28;20052;-82
2021/06/06 10:15:41;;;;;;;32.90;21.23;;;16.70;99.90;;;;;;5021949;28;20049;-82
2021/06/06 10:18:28;;;;;;;35.38;22.45;;;16.80;99.90;;;;;;5016915;28;20084;-84
2021/06/06 10:21:01;;;;;;;32.72;23.23;;;16.80;99.90;;;;;;4985373;28;20475;-82
2021/06/06 10:23:38;;;;;;;29.98;21.90;;;16.70;99.90;;;;;;5022223;28;20047;-82
2021/06/06 10:26:07;;;;;;;31.98;22.58;;;16.70;99.90;;;;;;5017411;28;20099;-82
2021/06/06 10:28:47;;;;;;;28.98;19.52;;;16.80;99.90;;;;;;5015310;28;20045;-83
2021/06/06 10:31:16;;;;;;;30.25;19.80;;;16.80;99.90;;;;;;4996171;28;20132;-82
2021/06/06 10:34:36;;;;;;;24.23;18.25;;;16.70;99.90;;;;;;4981794;28;20056;-83
2021/06/06 10:37:08;;;;;;;21.00;17.88;;;16.70;99.90;;;;;;5001091;28;20124;-83
2021/06/06 10:39:40;;;;;;;29.40;19.88;;;16.70;99.90;;;;;;5004439;28;20030;-82
2021/06/06 10:42:16;;;;;;;25.27;18.73;;;16.70;99.90;;;;;;5001053;28;20072;-83
2021/06/06 10:45:04;;;;;;;24.83;17.45;;;16.70;99.90;;;;;;5016347;28;20033;-83
2021/06/06 10:47:54;;;;;;;27.40;18.67;;;16.70;99.90;;;;;;5003911;28;20107;-83
2021/06/06 10:50:22;;;;;;;29.13;18.50;;;16.70;99.90;;;;;;5002571;28;20483;-83
2021/06/06 10:52:50;;;;;;;26.63;17.90;;;16.70;99.90;;;;;;5033007;28;20034;-83
2021/06/06 10:55:28;;;;;;;23.42;18.55;;;16.60;99.90;;;;;;5015915;28;20044;-83
2021/06/06 10:57:55;;;;;;;28.30;18.95;;;16.60;99.90;;;;;;5017594;28;20385;-83
2021/06/06 11:00:40;;;;;;;28.45;18.85;;;16.50;99.90;;;;;;5011653;28;20038;-83
2021/06/06 11:03:11;;;;;;;21.52;17.42;;;16.50;99.90;;;;;;5022622;28;20169;-83
2021/06/06 11:05:44;;;;;;;22.50;17.60;;;16.50;99.90;;;;;;5010460;28;20041;-83
2021/06/06 11:08:30;;;;;;;21.92;16.45;;;16.50;99.90;;;;;;5006560;28;20041;-83
2021/06/06 11:11:20;;;;;;;23.67;15.52;;;16.50;99.90;;;;;;5025774;28;20042;-82
2021/06/06 11:13:49;;;;;;;26.92;15.88;;;16.50;99.90;;;;;;5030268;28;20064;-83
2021/06/06 11:16:18;;;;;;;32.55;14.95;;;16.50;99.90;;;;;;5012658;28;20152;-82
2021/06/06 11:18:50;;;;;;;24.17;14.60;;;16.50;99.90;;;;;;5022501;28;20042;-82
2021/06/06 11:21:28;;;;;;;17.30;13.52;;;16.60;99.90;;;;;;5023272;28;20132;-82
2021/06/06 11:23:57;;;;;;;19.52;13.57;;;16.70;99.90;;;;;;5009185;28;20130;-83
2021/06/06 11:26:31;;;;;;;18.88;14.88;;;16.70;99.90;;;;;;5009547;28;20038;-83
2021/06/06 11:29:15;;;;;;;22.02;14.63;;;16.70;99.90;;;;;;5020975;28;20034;-82
2021/06/06 11:32:01;;;;;;;18.08;12.77;;;16.80;99.90;;;;;;5008504;28;20041;-82
2021/06/06 11:34:32;;;;;;;20.27;14.70;;;16.80;99.90;;;;;;5041752;28;22758;-83
2021/06/06 11:37:14;;;;;;;18.13;15.00;;;16.90;99.90;;;;;;5005957;28;20137;-82
2021/06/06 11:39:45;;;;;;;18.42;14.60;;;17.00;99.90;;;;;;5037043;28;20476;-81
2021/06/06 11:42:27;;;;;;;19.70;14.90;;;16.90;99.90;;;;;;5035118;28;20480;-82
2021/06/06 11:44:56;;;;;;;16.70;14.07;;;16.90;99.90;;;;;;5021397;28;20436;-82
2021/06/06 11:47:24;;;;;;;16.23;12.75;;;17.00;99.90;;;;;;5006410;28;20045;-82
2021/06/06 11:49:58;;;;;;;17.13;13.77;;;17.00;99.90;;;;;;5004870;28;20045;-83
2021/06/06 11:52:46;;;;;;;14.55;12.68;;;17.00;99.90;;;;;;5005562;28;20041;-83
2021/06/06 11:55:21;;;;;;;18.30;14.07;;;17.00;99.90;;;;;;4990444;28;20053;-83
2021/06/06 11:57:55;;;;;;;20.85;13.98;;;16.90;99.90;;;;;;5001718;28;20164;-83
2021/06/06 12:00:33;;;;;;;20.15;13.80;;;16.90;99.90;;;;;;5007557;28;20496;-83
2021/06/06 12:03:17;;;;;;;17.67;13.70;;;16.90;99.90;;;;;;5024182;28;20052;-82
2021/06/06 12:05:51;;;;;;;14.38;12.70;;;17.00;99.90;;;;;;5003295;28;20042;-82
2021/06/06 12:08:17;;;;;;;15.00;12.98;;;17.00;99.90;;;;;;5001173;28;20411;-83
2021/06/06 12:10:57;;;;;;;15.25;13.55;;;17.00;99.90;;;;;;5017763;28;20087;-82
2021/06/06 12:13:27;;;;;;;17.63;13.63;;;17.00;99.90;;;;;;5008249;28;20923;-83
2021/06/06 12:16:04;;;;;;;13.35;11.93;;;17.00;99.90;;;;;;5005708;28;20488;-83
2021/06/06 12:18:31;;;;;;;15.48;11.63;;;17.00;99.90;;;;;;4999767;28;20104;-82
2021/06/06 12:20:59;;;;;;;19.40;12.10;;;17.10;99.90;;;;;;5020441;28;20103;-82
2021/06/06 12:23:33;;;;;;;15.77;12.52;;;17.10;99.90;;;;;;5004281;28;20045;-82
2021/06/06 12:26:16;;;;;;;18.40;12.30;;;17.10;99.90;;;;;;5005134;28;20124;-82
2021/06/06 12:28:49;;;;;;;13.77;11.18;;;17.10;99.90;;;;;;5002156;28;20037;-82
2021/06/06 12:31:28;;;;;;;15.23;11.20;;;17.00;99.90;;;;;;5002696;28;20045;-82
2021/06/06 12:33:55;;;;;;;13.48;10.90;;;17.00;99.90;;;;;;5020008;28;20056;-82
2021/06/06 12:36:32;;;;;;;15.48;11.15;;;17.00;99.90;;;;;;5005168;28;20062;-82
2021/06/06 12:39:01;;;;;;;14.10;11.13;;;17.10;99.90;;;;;;5004825;28;20045;-81
2021/06/06 12:41:42;;;;;;;12.65;10.65;;;17.20;99.90;;;;;;5021128;28;20052;-82
2021/06/06 12:44:11;;;;;;;15.05;9.98;;;17.20;99.90;;;;;;5024729;28;20026;-83
2021/06/06 12:47:19;;;;;;;9.95;8.27;;;17.20;99.90;;;;;;5025235;28;20034;-82
2021/06/06 12:50:00;;;;;;;13.55;8.20;;;17.20;99.90;;;;;;4937055;28;20114;-83
2021/06/06 12:52:36;;;;;;;9.27;6.22;;;17.20;99.90;;;;;;5032317;28;20034;-82
2021/06/06 12:55:28;;;;;;;8.70;5.88;;;17.20;99.90;;;;;;5012722;28;20045;-83
2021/06/06 12:58:00;;;;;;;8.27;6.28;;;17.20;99.90;;;;;;5023924;28;21545;-80
2021/06/06 13:00:32;;;;;;;8.75;6.65;;;17.30;99.90;;;;;;5041962;28;20473;-82
2021/06/06 13:02:58;;;;;;;9.77;7.22;;;17.30;99.90;;;;;;5008009;28;20112;-81
2021/06/06 13:05:41;;;;;;;11.73;7.40;;;17.20;99.90;;;;;;5020514;28;20040;-84
2021/06/06 13:08:25;;;;;;;10.23;7.40;;;17.30;99.90;;;;;;5007126;28;20381;-83
2021/06/06 13:10:55;;;;;;;7.15;6.38;;;17.20;99.90;;;;;;5020855;28;20098;-82
2021/06/06 13:13:31;;;;;;;9.48;7.07;;;17.30;99.90;;;;;;5008189;28;20238;-81
2021/06/06 13:15:57;;;;;;;9.77;7.88;;;17.30;99.90;;;;;;5002742;28;20060;-82
2021/06/06 13:18:33;;;;;;;11.05;7.55;;;17.20;99.90;;;;;;5027975;28;20061;-83
2021/06/06 13:21:05;;;;;;;9.80;7.82;;;17.30;99.90;;;;;;5012067;28;20044;-81
2021/06/06 13:23:38;;;;;;;10.95;7.78;;;17.30;99.90;;;;;;5044597;28;20231;-82
2021/06/06 13:26:11;;;;;;;12.15;8.80;;;17.40;99.90;;;;;;5031366;28;20037;-82
2021/06/06 13:28:43;;;;;;;11.00;9.15;;;17.40;99.90;;;;;;5030303;28;20042;-82
2021/06/06 13:31:20;;;;;;;11.32;8.40;;;17.40;99.90;;;;;;5028327;28;20161;-83
2021/06/06 13:33:46;;;;;;;11.85;9.70;;;17.40;99.90;;;;;;5037151;28;20464;-82
2021/06/06 13:36:13;;;;;;;12.38;9.90;;;17.40;99.90;;;;;;5034853;28;20373;-83
2021/06/06 13:38:39;;;;;;;11.48;9.48;;;17.40;99.90;;;;;;5034672;28;20033;-83
2021/06/06 13:41:07;;;;;;;14.20;9.75;;;17.40;99.90;;;;;;5027946;28;20037;-82
2021/06/06 13:43:34;;;;;;;19.27;10.90;;;18.10;99.90;;;;;;5032968;28;20049;-83
2021/06/06 13:46:00;;;;;;;13.52;10.48;;;17.50;99.90;;;;;;5032650;28;20041;-82
2021/06/06 13:48:28;;;;;;;12.80;9.98;;;17.60;99.90;;;;;;5031352;28;20061;-83
2021/06/06 13:50:54;;;;;;;15.05;10.52;;;17.40;99.90;;;;;;5031761;28;20071;-81
2021/06/06 13:53:24;;;;;;;13.32;11.00;;;17.40;99.90;;;;;;5033441;28;20497;-82
2021/06/06 13:55:51;;;;;;;16.45;10.93;;;17.40;99.90;;;;;;5036115;28;20037;-83
2021/06/06 13:58:19;;;;;;;22.25;12.65;;;17.30;99.90;;;;;;5032968;28;20405;-83
2021/06/06 14:00:45;;;;;;;18.77;12.98;;;17.30;99.90;;;;;;5026988;28;20115;-83
2021/06/06 14:03:20;;;;;;;18.83;12.45;;;17.30;99.90;;;;;;5026690;28;20407;-83
2021/06/06 14:05:46;;;;;;;23.88;12.45;;;17.30;99.90;;;;;;5025098;28;20056;-82
2021/06/06 14:08:12;;;;;;;19.02;13.15;;;17.30;99.90;;;;;;5026137;28;20041;-82
2021/06/06 14:10:42;;;;;;;20.13;12.15;;;17.30;99.90;;;;;;5009923;28;20120;-83
2021/06/06 14:13:12;;;;;;;18.05;11.38;;;17.30;99.90;;;;;;5005271;28;20037;-81
2021/06/06 14:15:40;;;;;;;14.02;10.98;;;17.30;99.90;;;;;;5024067;28;20047;-82
2021/06/06 14:18:06;;;;;;;18.63;10.90;;;17.30;99.90;;;;;;5021530;28;20087;-82
2021/06/06 14:20:32;;;;;;;16.30;11.15;;;17.40;99.90;;;;;;5026522;28;20038;-81
2021/06/06 14:22:59;;;;;;;13.27;10.52;;;17.40;99.90;;;;;;5023340;28;20030;-79
2021/06/06 14:25:30;;;;;;;17.10;11.05;;;17.60;99.90;;;;;;5008442;28;20176;-82
2021/06/06 14:27:56;;;;;;;17.73;10.55;;;17.70;99.90;;;;;;5022843;28;20044;-82
2021/06/06 14:30:28;;;;;;;16.42;11.02;;;17.90;99.90;;;;;;5023775;28;20033;-83
2021/06/06 14:32:54;;;;;;;17.00;11.10;;;18.00;99.90;;;;;;5009158;28;20095;-83
2021/06/06 14:35:21;;;;;;;14.13;9.45;;;18.10;99.90;;;;;;5009852;28;20540;-81
2021/06/06 14:37:47;;;;;;;20.63;11.00;;;18.10;99.90;;;;;;5014898;28;20567;-82
2021/06/06 14:40:17;;;;;;;16.27;10.45;;;18.20;99.90;;;;;;5029394;28;20107;-81
2021/06/06 14:42:43;;;;;;;15.63;10.68;;;18.20;99.90;;;;;;5027509;28;20045;-82
2021/06/06 14:45:17;;;;;;;16.40;9.85;;;18.20;99.90;;;;;;5012484;28;20041;-81
2021/06/06 14:47:43;;;;;;;16.08;11.07;;;18.10;99.90;;;;;;5023331;28;20056;-82
2021/06/06 14:50:10;;;;;;;15.13;9.82;;;18.10;99.90;;;;;;5016245;28;20037;-82
2021/06/06 14:52:35;;;;;;;15.32;9.77;;;18.10;99.90;;;;;;5039491;28;20047;-81
2021/06/06 14:55:02;;;;;;;17.20;10.35;;;18.20;99.90;;;;;;5025100;28;20041;-82
2021/06/06 14:57:27;;;;;;;15.95;10.30;;;18.20;99.90;;;;;;5027215;28;20037;-82
2021/06/06 14:59:54;;;;;;;15.23;10.23;;;18.20;99.90;;;;;;5031307;28;20045;-81
2021/06/06 15:02:19;;;;;;;16.75;10.00;;;18.20;99.90;;;;;;5035721;28;20052;-81
2021/06/06 15:04:45;;;;;;;21.00;11.07;;;18.10;99.90;;;;;;5037212;28;20793;-82
2021/06/06 15:07:11;;;;;;;19.15;11.15;;;18.10;99.90;;;;;;5022814;28;20057;-81
2021/06/06 15:09:36;;;;;;;16.35;10.07;;;18.10;99.90;;;;;;5008669;28;20034;-83
2021/06/06 15:12:03;;;;;;;14.80;10.75;;;18.00;99.90;;;;;;5008326;28;21036;-82
2021/06/06 15:14:29;;;;;;;12.88;10.93;;;18.00;99.90;;;;;;5025112;28;20048;-82
2021/06/06 15:16:56;;;;;;;14.38;10.25;;;18.00;99.90;;;;;;5025035;28;20042;-82
2021/06/06 15:19:23;;;;;;;16.05;11.13;;;17.90;99.90;;;;;;5021807;28;20049;-82
2021/06/06 15:21:49;;;;;;;15.85;11.30;;;17.90;99.90;;;;;;5022471;28;20353;-81
2021/06/06 15:24:16;;;;;;;17.60;10.40;;;17.90;99.90;;;;;;5025461;28;20049;-82
2021/06/06 15:26:45;;;;;;;14.40;10.57;;;18.00;99.90;;;;;;5008571;28;20047;-82
2021/06/06 15:29:12;;;;;;;16.52;10.52;;;18.00;99.90;;;;;;5020609;28;20041;-82
2021/06/06 15:31:38;;;;;;;17.75;11.82;;;18.00;99.90;;;;;;5022421;28;20064;-82
2021/06/06 15:34:05;;;;;;;25.27;12.00;;;18.00;99.90;;;;;;5019858;28;20519;-82
2021/06/06 15:36:33;;;;;;;18.38;10.95;;;18.00;99.90;;;;;;5005622;28;20799;-82
2021/06/06 15:38:59;;;;;;;16.27;11.18;;;17.90;99.90;;;;;;5007853;28;20041;-82
2021/06/06 15:41:27;;;;;;;18.15;11.52;;;18.00;99.90;;;;;;5036522;28;20107;-81
2021/06/06 15:43:56;;;;;;;14.65;10.93;;;18.00;99.90;;;;;;5028131;28;20046;-83
2021/06/06 15:46:24;;;;;;;15.15;10.80;;;18.00;99.90;;;;;;5022814;28;20041;-83
2021/06/06 15:48:51;;;;;;;16.45;10.52;;;18.00;99.90;;;;;;5020607;28;20034;-81
2021/06/06 15:51:31;;;;;;;16.15;10.73;;;18.00;99.90;;;;;;5009743;28;20247;-83
2021/06/06 15:53:57;;;;;;;15.68;10.13;;;18.10;99.90;;;;;;5038273;28;20034;-82
2021/06/06 15:57:03;;;;;;;14.40;10.23;;;18.10;99.90;;;;;;5028761;28;20072;-83
2021/06/06 15:59:33;;;;;;;15.57;9.68;;;18.20;99.90;;;;;;4993258;28;21868;-84
2021/06/06 16:02:13;;;;;;;15.95;9.63;;;18.20;99.90;;;;;;5028423;28;20450;-83
2021/06/06 16:04:48;;;;;;;14.68;9.40;;;18.10;99.90;;;;;;5016190;28;20041;-83
2021/06/06 16:07:14;;;;;;;14.20;8.40;;;18.20;99.90;;;;;;5009868;28;20043;-81
2021/06/06 16:09:40;;;;;;;10.35;7.72;;;18.40;99.90;;;;;;5013495;28;21141;-82
2021/06/06 16:12:07;;;;;;;12.93;7.60;;;18.50;99.90;;;;;;5027501;28;20029;-83
2021/06/06 16:14:35;;;;;;;9.07;6.47;;;18.60;99.90;;;;;;5033404;28;20049;-83
2021/06/06 16:17:01;;;;;;;9.48;6.45;;;18.60;99.90;;;;;;5032298;28;20411;-82
2021/06/06 16:19:27;;;;;;;11.25;6.25;;;18.40;99.90;;;;;;5035835;28;20488;-83
2021/06/06 16:21:52;;;;;;;10.93;6.07;;;18.40;99.90;;;;;;5029646;28;20038;-83
2021/06/06 16:24:18;;;;;;;16.80;6.25;;;18.40;99.90;;;;;;5032947;28;20056;-82
2021/06/06 16:26:45;;;;;;;11.95;5.05;;;18.40;99.90;;;;;;5001241;28;20080;-84
2021/06/06 16:29:11;;;;;;;8.98;5.80;;;18.50;99.90;;;;;;5028967;28;20034;-83
2021/06/06 16:31:36;;;;;;;12.85;5.55;;;18.50;99.90;;;;;;5030383;28;20480;-83
2021/06/06 16:34:02;;;;;;;10.25;5.20;;;18.50;99.90;;;;;;5025703;28;20550;-84
2021/06/06 16:36:28;;;;;;;8.93;4.88;;;18.50;99.90;;;;;;5022774;28;20041;-82
2021/06/06 16:38:55;;;;;;;11.55;5.45;;;18.50;99.90;;;;;;5029156;28;20033;-83
2021/06/06 16:41:23;;;;;;;8.77;5.60;;;18.40;99.70;;;;;;5022460;28;20044;-82
2021/06/06 16:43:59;;;;;;;7.60;4.70;;;18.40;99.90;;;;;;5008241;28;20149;-83
2021/06/06 16:46:27;;;;;;;8.50;5.10;;;18.40;99.90;;;;;;5027323;28;20045;-83
2021/06/06 16:48:53;;;;;;;13.05;5.22;;;18.40;99.90;;;;;;5017744;28;20033;-83
2021/06/06 16:51:19;;;;;;;9.40;5.25;;;18.40;99.90;;;;;;5007949;28;20041;-86
2021/06/06 16:53:48;;;;;;;6.38;4.93;;;18.30;99.90;;;;;;5041385;28;20500;-84
2021/06/06 16:56:14;;;;;;;6.90;4.68;;;18.50;99.90;;;;;;5007004;28;20040;-85
2021/06/06 16:58:41;;;;;;;8.80;5.15;;;18.60;99.90;;;;;;5005647;28;20044;-84
2021/06/06 17:01:12;;;;;;;9.27;5.00;;;18.30;99.90;;;;;;5024704;28;20037;-85
2021/06/06 17:03:40;;;;;;;10.63;4.88;;;18.30;99.90;;;;;;5027047;28;20143;-85
2021/06/06 17:06:06;;;;;;;7.40;5.55;;;18.30;99.90;;;;;;5007252;28;20041;-83
2021/06/06 17:08:33;;;;;;;8.13;4.65;;;18.10;99.90;;;;;;5027677;28;20442;-83
2021/06/06 17:10:59;;;;;;;6.35;4.30;;;18.20;99.90;;;;;;5023527;28;20408;-84
2021/06/06 17:13:41;;;;;;;5.90;4.95;;;18.20;99.90;;;;;;5022233;28;20045;-84
2021/06/06 17:16:10;;;;;;;6.97;4.47;;;18.20;99.90;;;;;;5005327;28;20072;-82
2021/06/06 17:18:43;;;;;;;9.15;4.60;;;18.10;99.90;;;;;;5009297;28;20037;-84
2021/06/06 17:21:52;;;;;;;7.32;4.35;;;18.10;99.90;;;;;;5020227;28;20056;-83
2021/06/06 17:25:02;;;;;;;10.65;3.78;;;17.80;99.90;;;;;;4989503;28;20158;-84
2021/06/06 17:27:30;;;;;;;11.00;5.32;;;17.80;99.90;;;;;;5003062;28;20053;-84
2021/06/06 17:29:55;;;;;;;9.27;4.60;;;17.80;99.90;;;;;;5003518;28;20143;-82
2021/06/06 17:32:21;;;;;;;5.38;3.58;;;17.80;99.90;;;;;;5014363;28;20047;-84
2021/06/06 17:34:47;;;;;;;7.93;4.05;;;17.70;99.90;;;;;;5001785;28;20144;-82
2021/06/06 17:37:13;;;;;;;7.75;4.47;;;17.70;99.90;;;;;;5005034;28;20567;-81
2021/06/06 17:39:38;;;;;;;8.15;5.05;;;17.60;99.90;;;;;;5008348;28;20045;-84
2021/06/06 17:42:04;;;;;;;6.63;4.90;;;17.50;99.90;;;;;;5005176;28;20696;-83
2021/06/06 17:44:32;;;;;;;6.65;4.50;;;17.40;99.90;;;;;;5003268;28;20041;-83
2021/06/06 17:46:58;;;;;;;5.43;4.40;;;17.40;99.90;;;;;;5022825;28;20033;-83
2021/06/06 17:49:24;;;;;;;11.48;4.07;;;17.30;99.90;;;;;;5022324;28;20483;-85
2021/06/06 17:51:50;;;;;;;6.07;4.20;;;17.40;99.90;;;;;;5023946;28;20091;-83
2021/06/06 17:54:17;;;;;;;8.43;4.15;;;17.30;99.90;;;;;;5006904;28;20045;-85
2021/06/06 17:56:44;;;;;;;7.88;4.05;;;17.40;99.90;;;;;;5004083;28;20100;-84
2021/06/06 17:59:09;;;;;;;7.20;3.88;;;17.30;99.90;;;;;;5020028;28;20143;-84
2021/06/06 18:01:43;;;;;;;7.03;4.05;;;17.50;99.90;;;;;;5018791;28;20034;-84
2021/06/06 18:04:20;;;;;;;5.28;3.80;;;17.40;99.90;;;;;;5020333;28;20069;-83
2021/06/06 18:06:47;;;;;;;4.88;4.15;;;17.40;99.90;;;;;;5002564;28;20076;-84
2021/06/06 18:09:15;;;;;;;7.70;3.83;;;17.40;99.90;;;;;;5019407;28;20041;-85
2021/06/06 18:11:41;;;;;;;9.80;3.75;;;17.30;99.90;;;;;;5024575;28;20090;-83
2021/06/06 18:14:16;;;;;;;4.38;3.67;;;17.30;99.90;;;;;;5021018;28;20120;-83
2021/06/06 18:16:45;;;;;;;7.40;4.13;;;17.30;99.90;;;;;;5021875;28;20040;-84
2021/06/06 18:19:22;;;;;;;7.68;4.15;;;17.30;99.90;;;;;;4992532;28;20033;-84
2021/06/06 18:21:58;;;;;;;6.47;3.72;;;17.30;99.90;;;;;;5001614;28;20131;-83
2021/06/06 18:24:26;;;;;;;5.55;4.03;;;17.20;99.90;;;;;;5001204;28;20045;-83
2021/06/06 18:26:53;;;;;;;10.73;4.32;;;17.20;99.90;;;;;;5007438;28;20040;-83
2021/06/06 18:29:19;;;;;;;5.63;3.75;;;17.50;99.90;;;;;;5020828;28;20038;-83
2021/06/06 18:31:46;;;;;;;5.07;3.83;;;17.10;99.90;;;;;;5015237;28;20745;-81
2021/06/06 18:34:11;;;;;;;9.70;4.07;;;17.00;99.90;;;;;;5021881;28;20041;-83
2021/06/06 18:36:42;;;;;;;7.00;3.95;;;16.90;99.90;;;;;;5020598;28;20936;-86
2021/06/06 18:39:08;;;;;;;8.43;4.13;;;16.80;99.90;;;;;;5021119;28;20087;-84
2021/06/06 18:41:35;;;;;;;6.28;4.90;;;16.90;99.90;;;;;;5032198;28;20047;-84
2021/06/06 18:44:01;;;;;;;10.45;4.88;;;16.60;99.90;;;;;;5023060;28;20461;-83
2021/06/06 18:46:27;;;;;;;5.47;5.00;;;16.50;99.90;;;;;;5023502;28;20041;-83
2021/06/06 18:48:53;;;;;;;7.85;4.93;;;16.50;99.90;;;;;;5020963;28;20042;-83
2021/06/06 18:51:20;;;;;;;5.28;4.63;;;16.50;99.90;;;;;;5021668;28;20087;-82
2021/06/06 18:53:47;;;;;;;5.32;4.82;;;16.50;99.90;;;;;;5035785;28;20092;-83
2021/06/06 18:56:16;;;;;;;9.82;5.47;;;16.40;99.90;;;;;;5007466;28;20448;-83
2021/06/06 18:58:45;;;;;;;6.03;5.03;;;16.40;99.90;;;;;;5021501;28;20091;-85
2021/06/06 19:01:15;;;;;;;6.00;4.93;;;16.40;99.90;;;;;;5025470;28;20579;-84
2021/06/06 19:03:44;;;;;;;7.13;5.03;;;16.40;99.90;;;;;;5028312;28;20720;-83
2021/06/06 19:06:14;;;;;;;5.82;4.82;;;16.40;99.90;;;;;;5028142;28;20068;-84
2021/06/06 19:08:39;;;;;;;5.07;4.57;;;16.30;99.90;;;;;;5027227;28;20094;-82
2021/06/06 19:11:07;;;;;;;7.55;4.88;;;16.30;99.90;;;;;;5013485;28;20403;-85
2021/06/06 19:13:34;;;;;;;7.88;4.20;;;16.20;99.90;;;;;;5034546;28;20073;-82
2021/06/06 19:16:00;;;;;;;8.73;4.57;;;16.20;99.90;;;;;;5031304;28;20072;-83
2021/06/06 19:18:26;;;;;;;6.13;4.85;;;16.40;99.90;;;;;;4992996;28;20111;-82
2021/06/06 19:20:55;;;;;;;8.63;4.50;;;16.10;99.90;;;;;;5029038;28;20033;-82
2021/06/06 19:23:25;;;;;;;9.73;5.18;;;16.20;99.90;;;;;;5025405;28;20040;-82
2021/06/06 19:25:52;;;;;;;12.68;4.75;;;16.10;99.90;;;;;;5012983;28;20873;-83
2021/06/06 19:28:22;;;;;;;15.00;5.50;;;16.10;99.90;;;;;;5027646;28;20149;-82
2021/06/06 19:30:48;;;;;;;12.82;5.15;;;16.10;99.90;;;;;;5026301;28;20103;-83
2021/06/06 19:33:16;;;;;;;12.38;5.55;;;15.90;99.90;;;;;;5008558;28;20037;-83
2021/06/06 19:35:45;;;;;;;8.68;5.07;;;16.00;99.90;;;;;;5007669;28;20049;-82
2021/06/06 19:38:12;;;;;;;7.78;4.50;;;15.90;99.90;;;;;;5029286;28;20057;-82
2021/06/06 19:40:38;;;;;;;7.10;4.97;;;15.80;99.90;;;;;;5024752;28;20072;-82
2021/06/06 19:43:06;;;;;;;7.13;4.40;;;15.90;99.90;;;;;;5022392;28;20037;-82
2021/06/06 19:45:33;;;;;;;5.47;4.97;;;15.80;99.90;;;;;;5010501;28;20824;-83